createdAt,value
2022-12-18T00:00:11.932Z,1028.48
2022-12-18T00:00:42.491Z,1028.49
2022-12-18T00:01:13.070Z,1028.49
2022-12-18T00:01:43.716Z,1028.49
2022-12-18T00:02:14.305Z,1028.49
2022-12-18T00:02:45.006Z,1028.51
2022-12-18T00:03:15.705Z,1028.51
2022-12-18T00:03:46.850Z,1028.52
2022-12-18T00:04:17.210Z,1028.54
2022-12-18T00:04:47.824Z,1028.55
2022-12-18T00:05:18.410Z,1028.56
2022-12-18T00:05:48.983Z,1028.57
2022-12-18T00:06:19.562Z,1028.58
2022-12-18T00:06:50.134Z,1028.58
2022-12-18T00:07:20.705Z,1028.58
2022-12-18T00:07:51.303Z,1028.57
2022-12-18T00:08:21.887Z,1028.56
2022-12-18T00:08:52.445Z,1028.55
2022-12-18T00:09:24.734Z,1028.55
2022-12-18T00:09:53.875Z,1028.55
2022-12-18T00:10:24.434Z,1028.56
2022-12-18T00:10:54.988Z,1028.53
2022-12-18T00:11:25.770Z,1028.55
2022-12-18T00:11:56.348Z,1028.56
2022-12-18T00:12:26.885Z,1028.57
2022-12-18T00:12:57.454Z,1028.59
2022-12-18T00:13:28.070Z,1028.61
2022-12-18T00:13:58.628Z,1028.62
2022-12-18T00:14:29.182Z,1028.62
2022-12-18T00:14:59.751Z,1028.61
2022-12-18T00:15:30.333Z,1028.62
2022-12-18T00:16:00.953Z,1028.60
2022-12-18T00:16:31.558Z,1028.58
2022-12-18T00:17:02.136Z,1028.56
2022-12-18T00:17:32.703Z,1028.55
2022-12-18T00:18:03.279Z,1028.53
2022-12-18T00:18:33.900Z,1028.52
2022-12-18T00:19:04.439Z,1028.52
2022-12-18T00:19:35.024Z,1028.51
2022-12-18T00:20:05.588Z,1028.51
2022-12-18T00:20:36.140Z,1028.51
2022-12-18T00:21:06.707Z,1028.52
2022-12-18T00:21:37.249Z,1028.54
2022-12-18T00:22:07.798Z,1028.53
2022-12-18T00:22:38.394Z,1028.54
2022-12-18T00:23:08.938Z,1028.55
2022-12-18T00:23:39.847Z,1028.57
2022-12-18T00:24:10.103Z,1028.58
2022-12-18T00:24:40.673Z,1028.58
2022-12-18T00:25:11.271Z,1028.60
2022-12-18T00:25:41.822Z,1028.63
2022-12-18T00:26:12.386Z,1028.65
2022-12-18T00:26:42.952Z,1028.66
2022-12-18T00:27:13.520Z,1028.68
2022-12-18T00:27:44.125Z,1028.69
2022-12-18T00:28:14.711Z,1028.71
2022-12-18T00:28:45.274Z,1028.71
2022-12-18T00:29:15.863Z,1028.72
2022-12-18T00:29:46.438Z,1028.71
2022-12-18T00:30:16.980Z,1028.71
2022-12-18T00:30:47.572Z,1028.71
2022-12-18T00:31:18.180Z,1028.71
2022-12-18T00:31:48.859Z,1028.71
2022-12-18T00:32:19.406Z,1028.70
2022-12-18T00:32:49.973Z,1028.71
2022-12-18T00:33:20.539Z,1028.72
2022-12-18T00:33:54.090Z,1028.72
2022-12-18T00:34:21.937Z,1028.73
2022-12-18T00:34:52.511Z,1028.74
2022-12-18T00:35:23.067Z,1028.75
2022-12-18T00:35:53.629Z,1028.76
2022-12-18T00:36:24.187Z,1028.77
2022-12-18T00:36:54.727Z,1028.79
2022-12-18T00:37:25.295Z,1028.79
2022-12-18T00:37:55.873Z,1028.79
2022-12-18T00:38:26.442Z,1028.79
2022-12-18T00:38:57.045Z,1028.80
2022-12-18T00:39:27.602Z,1028.80
2022-12-18T00:39:58.173Z,1028.82
2022-12-18T00:40:28.794Z,1028.83
2022-12-18T00:40:59.330Z,1028.84
2022-12-18T00:41:29.922Z,1028.84
2022-12-18T00:42:00.489Z,1028.85
2022-12-18T00:42:31.027Z,1028.85
2022-12-18T00:43:01.599Z,1028.85
2022-12-18T00:43:32.136Z,1028.86
2022-12-18T00:44:02.720Z,1028.86
2022-12-18T00:44:33.301Z,1028.86
2022-12-18T00:45:09.095Z,1028.84
2022-12-18T00:45:34.739Z,1028.84
2022-12-18T00:46:05.407Z,1028.83
2022-12-18T00:46:36.000Z,1028.82
2022-12-18T00:47:06.585Z,1028.80
2022-12-18T00:47:37.161Z,1028.80
2022-12-18T00:48:07.736Z,1028.79
2022-12-18T00:48:38.462Z,1028.79
2022-12-18T00:49:09.061Z,1028.81
2022-12-18T00:49:39.658Z,1028.82
2022-12-18T00:50:10.224Z,1028.83
2022-12-18T00:50:40.803Z,1028.85
2022-12-18T00:51:11.384Z,1028.86
2022-12-18T00:51:41.965Z,1028.89
2022-12-18T00:52:12.660Z,1028.91
2022-12-18T00:52:43.222Z,1028.92
2022-12-18T00:53:13.791Z,1028.93
2022-12-18T00:53:44.316Z,1028.93
2022-12-18T00:54:14.866Z,1028.94
2022-12-18T00:54:45.428Z,1028.95
2022-12-18T00:55:16.001Z,1028.95
2022-12-18T00:55:46.682Z,1028.96
2022-12-18T00:56:17.223Z,1028.97
2022-12-18T00:56:49.879Z,1028.96
2022-12-18T00:57:18.572Z,1028.97
2022-12-18T00:57:49.129Z,1028.97
2022-12-18T00:58:19.705Z,1028.96
2022-12-18T00:58:50.306Z,1028.96
2022-12-18T00:59:20.996Z,1028.96
2022-12-18T00:59:51.568Z,1028.96
2022-12-18T01:00:22.163Z,1028.96
2022-12-18T01:00:52.810Z,1028.95
2022-12-18T01:01:23.495Z,1028.94
2022-12-18T01:01:54.278Z,1028.93
2022-12-18T01:02:25.026Z,1028.92
2022-12-18T01:02:55.745Z,1028.91
2022-12-18T01:03:26.352Z,1028.91
2022-12-18T01:03:56.927Z,1028.90
2022-12-18T01:04:27.493Z,1028.89
2022-12-18T01:04:58.105Z,1028.89
2022-12-18T01:05:28.688Z,1028.91
2022-12-18T01:05:59.231Z,1028.90
2022-12-18T01:06:29.803Z,1028.90
2022-12-18T01:07:00.358Z,1028.90
2022-12-18T01:07:30.936Z,1028.90
2022-12-18T01:08:01.500Z,1028.90
2022-12-18T01:08:32.071Z,1028.91
2022-12-18T01:09:02.638Z,1028.92
2022-12-18T01:09:33.202Z,1028.92
2022-12-18T01:10:03.782Z,1028.94
2022-12-18T01:10:34.357Z,1028.95
2022-12-18T01:11:04.938Z,1028.95
2022-12-18T01:11:35.473Z,1028.96
2022-12-18T01:12:06.030Z,1028.98
2022-12-18T01:12:36.587Z,1028.97
2022-12-18T01:13:07.139Z,1028.99
2022-12-18T01:13:38.104Z,1029.02
2022-12-18T01:14:08.415Z,1029.04
2022-12-18T01:14:38.968Z,1029.05
2022-12-18T01:15:09.520Z,1029.06
2022-12-18T01:15:40.140Z,1029.08
2022-12-18T01:16:10.770Z,1029.08
2022-12-18T01:16:41.470Z,1029.07
2022-12-18T01:17:12.068Z,1029.04
2022-12-18T01:17:42.638Z,1029.04
2022-12-18T01:18:13.176Z,1029.01
2022-12-18T01:18:43.712Z,1028.99
2022-12-18T01:19:14.235Z,1028.97
2022-12-18T01:19:44.803Z,1028.97
2022-12-18T01:20:15.381Z,1028.95
2022-12-18T01:20:45.944Z,1028.94
2022-12-18T01:21:16.514Z,1028.93
2022-12-18T01:21:47.102Z,1028.94
2022-12-18T01:22:17.639Z,1028.93
2022-12-18T01:22:48.206Z,1028.93
2022-12-18T01:23:18.780Z,1028.93
2022-12-18T01:23:49.344Z,1028.93
2022-12-18T01:24:19.939Z,1028.95
2022-12-18T01:24:50.522Z,1028.95
2022-12-18T01:25:21.068Z,1028.97
2022-12-18T01:25:51.661Z,1028.98
2022-12-18T01:26:22.282Z,1029.00
2022-12-18T01:26:52.821Z,1029.01
2022-12-18T01:27:23.410Z,1029.03
2022-12-18T01:27:53.980Z,1029.04
2022-12-18T01:28:24.556Z,1029.06
2022-12-18T01:28:55.147Z,1029.07
2022-12-18T01:29:25.699Z,1029.08
2022-12-18T01:29:56.256Z,1029.08
2022-12-18T01:30:26.831Z,1029.09
2022-12-18T01:30:57.384Z,1029.10
2022-12-18T01:31:28.032Z,1029.09
2022-12-18T01:31:58.672Z,1029.09
2022-12-18T01:32:29.305Z,1029.09
2022-12-18T01:32:59.870Z,1029.12
2022-12-18T01:33:30.435Z,1029.13
2022-12-18T01:34:00.983Z,1029.12
2022-12-18T01:34:31.558Z,1029.14
2022-12-18T01:35:02.113Z,1029.14
2022-12-18T01:35:32.683Z,1029.16
2022-12-18T01:36:03.225Z,1029.16
2022-12-18T01:36:33.783Z,1029.18
2022-12-18T01:37:04.369Z,1029.20
2022-12-18T01:37:34.945Z,1029.21
2022-12-18T01:38:05.520Z,1029.22
2022-12-18T01:38:36.068Z,1029.24
2022-12-18T01:39:06.639Z,1029.22
2022-12-18T01:39:37.191Z,1029.22
2022-12-18T01:40:07.722Z,1029.22
2022-12-18T01:40:38.302Z,1029.25
2022-12-18T01:41:08.872Z,1029.24
2022-12-18T01:41:39.448Z,1029.24
2022-12-18T01:42:10.029Z,1029.25
2022-12-18T01:42:40.579Z,1029.26
2022-12-18T01:43:11.135Z,1029.27
2022-12-18T01:43:41.713Z,1029.27
2022-12-18T01:44:12.312Z,1029.28
2022-12-18T01:44:42.885Z,1029.28
2022-12-18T01:45:13.463Z,1029.28
2022-12-18T01:45:44.113Z,1029.26
2022-12-18T01:46:14.828Z,1029.27
2022-12-18T01:46:45.448Z,1029.26
2022-12-18T01:47:16.038Z,1029.27
2022-12-18T01:47:46.625Z,1029.27
2022-12-18T01:48:17.188Z,1029.27
2022-12-18T01:48:47.750Z,1029.26
2022-12-18T01:49:18.342Z,1029.26
2022-12-18T01:49:48.891Z,1029.27
2022-12-18T01:50:19.484Z,1029.26
2022-12-18T01:50:50.050Z,1029.24
2022-12-18T01:51:20.686Z,1029.25
2022-12-18T01:51:51.401Z,1029.24
2022-12-18T01:52:21.966Z,1029.23
2022-12-18T01:52:52.538Z,1029.22
2022-12-18T01:53:23.136Z,1029.21
2022-12-18T01:53:53.687Z,1029.20
2022-12-18T01:54:24.244Z,1029.18
2022-12-18T01:54:54.800Z,1029.19
2022-12-18T01:55:25.333Z,1029.18
2022-12-18T01:55:55.932Z,1029.18
2022-12-18T01:56:26.505Z,1029.19
2022-12-18T01:56:57.074Z,1029.19
2022-12-18T01:57:27.658Z,1029.20
2022-12-18T01:57:58.240Z,1029.22
2022-12-18T01:58:28.797Z,1029.18
2022-12-18T01:58:59.347Z,1029.18
2022-12-18T01:59:29.934Z,1029.18
2022-12-18T02:00:00.515Z,1029.20
2022-12-18T02:00:31.096Z,1029.20
2022-12-18T02:01:01.698Z,1029.22
2022-12-18T02:01:32.489Z,1029.23
2022-12-18T02:02:03.447Z,1029.22
2022-12-18T02:02:34.255Z,1029.24
2022-12-18T02:03:04.870Z,1029.21
2022-12-18T02:03:36.251Z,1029.21
2022-12-18T02:04:06.005Z,1029.19
2022-12-18T02:04:36.590Z,1029.18
2022-12-18T02:05:07.161Z,1029.19
2022-12-18T02:05:37.700Z,1029.17
2022-12-18T02:06:08.676Z,1029.17
2022-12-18T02:06:39.231Z,1029.18
2022-12-18T02:07:09.829Z,1029.19
2022-12-18T02:07:40.426Z,1029.18
2022-12-18T02:08:10.977Z,1029.18
2022-12-18T02:08:41.508Z,1029.18
2022-12-18T02:09:12.070Z,1029.18
2022-12-18T02:09:42.618Z,1029.19
2022-12-18T02:10:13.149Z,1029.19
2022-12-18T02:10:43.753Z,1029.18
2022-12-18T02:11:14.297Z,1029.19
2022-12-18T02:11:44.888Z,1029.18
2022-12-18T02:12:15.475Z,1029.18
2022-12-18T02:12:46.177Z,1029.19
2022-12-18T02:13:16.712Z,1029.19
2022-12-18T02:13:47.317Z,1029.17
2022-12-18T02:14:17.889Z,1029.17
2022-12-18T02:14:48.436Z,1029.17
2022-12-18T02:15:19.031Z,1029.16
2022-12-18T02:15:49.618Z,1029.16
2022-12-18T02:16:20.282Z,1029.15
2022-12-18T02:16:50.949Z,1029.14
2022-12-18T02:17:21.567Z,1029.14
2022-12-18T02:17:52.135Z,1029.13
2022-12-18T02:18:22.701Z,1029.11
2022-12-18T02:18:53.303Z,1029.12
2022-12-18T02:19:23.856Z,1029.11
2022-12-18T02:19:54.416Z,1029.09
2022-12-18T02:20:25.001Z,1029.10
2022-12-18T02:20:55.585Z,1029.10
2022-12-18T02:21:26.191Z,1029.09
2022-12-18T02:21:56.778Z,1029.09
2022-12-18T02:22:27.359Z,1029.10
2022-12-18T02:22:57.944Z,1029.11
2022-12-18T02:23:28.531Z,1029.11
2022-12-18T02:23:59.147Z,1029.11
2022-12-18T02:24:29.696Z,1029.12
2022-12-18T02:25:00.271Z,1029.13
2022-12-18T02:25:30.833Z,1029.13
2022-12-18T02:26:01.381Z,1029.13
2022-12-18T02:26:31.941Z,1029.13
2022-12-18T02:27:02.512Z,1029.13
2022-12-18T02:27:33.086Z,1029.13
2022-12-18T02:28:03.795Z,1029.15
2022-12-18T02:28:34.343Z,1029.14
2022-12-18T02:29:04.904Z,1029.18
2022-12-18T02:29:35.491Z,1029.17
2022-12-18T02:30:06.041Z,1029.18
2022-12-18T02:30:36.682Z,1029.19
2022-12-18T02:31:07.314Z,1029.21
2022-12-18T02:31:37.881Z,1029.22
2022-12-18T02:32:08.453Z,1029.23
2022-12-18T02:32:39.029Z,1029.25
2022-12-18T02:33:09.614Z,1029.27
2022-12-18T02:33:40.697Z,1029.25
2022-12-18T02:34:11.054Z,1029.26
2022-12-18T02:34:41.653Z,1029.26
2022-12-18T02:35:12.216Z,1029.24
2022-12-18T02:35:42.777Z,1029.24
2022-12-18T02:36:13.365Z,1029.24
2022-12-18T02:36:43.917Z,1029.26
2022-12-18T02:37:14.515Z,1029.28
2022-12-18T02:37:45.070Z,1029.28
2022-12-18T02:38:15.616Z,1029.29
2022-12-18T02:38:46.152Z,1029.28
2022-12-18T02:39:16.734Z,1029.29
2022-12-18T02:39:47.299Z,1029.31
2022-12-18T02:40:17.882Z,1029.31
2022-12-18T02:40:48.460Z,1029.30
2022-12-18T02:41:19.007Z,1029.30
2022-12-18T02:41:49.572Z,1029.28
2022-12-18T02:42:20.112Z,1029.28
2022-12-18T02:42:50.673Z,1029.30
2022-12-18T02:43:21.368Z,1029.28
2022-12-18T02:43:51.901Z,1029.30
2022-12-18T02:44:22.449Z,1029.30
2022-12-18T02:44:53.005Z,1029.32
2022-12-18T02:45:23.560Z,1029.33
2022-12-18T02:45:54.130Z,1029.34
2022-12-18T02:46:24.673Z,1029.33
2022-12-18T02:46:55.232Z,1029.33
2022-12-18T02:47:25.797Z,1029.32
2022-12-18T02:47:56.378Z,1029.31
2022-12-18T02:48:26.928Z,1029.30
2022-12-18T02:48:57.514Z,1029.28
2022-12-18T02:49:28.101Z,1029.26
2022-12-18T02:49:58.694Z,1029.25
2022-12-18T02:50:29.229Z,1029.27
2022-12-18T02:50:59.797Z,1029.25
2022-12-18T02:51:30.377Z,1029.24
2022-12-18T02:52:00.959Z,1029.24
2022-12-18T02:52:31.544Z,1029.25
2022-12-18T02:53:02.126Z,1029.24
2022-12-18T02:53:32.695Z,1029.25
2022-12-18T02:54:03.272Z,1029.25
2022-12-18T02:54:33.852Z,1029.25
2022-12-18T02:55:04.416Z,1029.24
2022-12-18T02:55:34.986Z,1029.23
2022-12-18T02:56:05.554Z,1029.23
2022-12-18T02:56:36.132Z,1029.23
2022-12-18T02:57:06.674Z,1029.23
2022-12-18T02:57:37.231Z,1029.23
2022-12-18T02:58:07.783Z,1029.22
2022-12-18T02:58:38.465Z,1029.23
2022-12-18T02:59:08.995Z,1029.23
2022-12-18T02:59:39.572Z,1029.24
2022-12-18T03:00:10.142Z,1029.23
2022-12-18T03:00:40.704Z,1029.23
2022-12-18T03:01:11.298Z,1029.25
2022-12-18T03:01:42.046Z,1029.25
2022-12-18T03:02:12.869Z,1029.23
2022-12-18T03:02:43.739Z,1029.22
2022-12-18T03:03:14.358Z,1029.20
2022-12-18T03:03:44.946Z,1029.19
2022-12-18T03:04:15.515Z,1029.19
2022-12-18T03:04:46.053Z,1029.19
2022-12-18T03:05:16.619Z,1029.19
2022-12-18T03:05:47.181Z,1029.19
2022-12-18T03:06:18.172Z,1029.18
2022-12-18T03:06:48.762Z,1029.20
2022-12-18T03:07:19.320Z,1029.20
2022-12-18T03:07:49.906Z,1029.20
2022-12-18T03:08:20.472Z,1029.21
2022-12-18T03:08:51.033Z,1029.19
2022-12-18T03:09:21.611Z,1029.19
2022-12-18T03:09:52.151Z,1029.18
2022-12-18T03:10:22.711Z,1029.18
2022-12-18T03:10:53.245Z,1029.16
2022-12-18T03:11:23.816Z,1029.15
2022-12-18T03:11:54.413Z,1029.14
2022-12-18T03:12:25.002Z,1029.12
2022-12-18T03:12:55.539Z,1029.10
2022-12-18T03:13:26.082Z,1029.11
2022-12-18T03:13:56.744Z,1029.11
2022-12-18T03:14:27.357Z,1029.11
2022-12-18T03:14:57.909Z,1029.12
2022-12-18T03:15:28.474Z,1029.13
2022-12-18T03:15:59.017Z,1029.16
2022-12-18T03:16:29.690Z,1029.18
2022-12-18T03:17:00.317Z,1029.20
2022-12-18T03:17:30.846Z,1029.21
2022-12-18T03:18:01.429Z,1029.22
2022-12-18T03:18:32.022Z,1029.24
2022-12-18T03:19:02.587Z,1029.26
2022-12-18T03:19:33.148Z,1029.26
2022-12-18T03:20:03.709Z,1029.27
2022-12-18T03:20:34.291Z,1029.27
2022-12-18T03:21:04.840Z,1029.28
2022-12-18T03:21:35.443Z,1029.31
2022-12-18T03:22:06.026Z,1029.32
2022-12-18T03:22:36.583Z,1029.34
2022-12-18T03:23:07.158Z,1029.38
2022-12-18T03:23:37.835Z,1029.38
2022-12-18T03:24:08.423Z,1029.41
2022-12-18T03:24:39.278Z,1029.42
2022-12-18T03:25:09.880Z,1029.44
2022-12-18T03:25:40.454Z,1029.47
2022-12-18T03:26:11.009Z,1029.49
2022-12-18T03:26:41.570Z,1029.50
2022-12-18T03:27:12.156Z,1029.51
2022-12-18T03:27:42.754Z,1029.50
2022-12-18T03:28:13.318Z,1029.49
2022-12-18T03:28:43.840Z,1029.48
2022-12-18T03:29:20.373Z,1029.45
2022-12-18T03:29:45.301Z,1029.43
2022-12-18T03:30:15.834Z,1029.42
2022-12-18T03:30:46.516Z,1029.42
2022-12-18T03:31:17.198Z,1029.41
2022-12-18T03:31:47.790Z,1029.39
2022-12-18T03:32:18.356Z,1029.39
2022-12-18T03:32:48.916Z,1029.38
2022-12-18T03:33:19.509Z,1029.37
2022-12-18T03:33:50.049Z,1029.37
2022-12-18T03:34:20.641Z,1029.37
2022-12-18T03:34:51.262Z,1029.36
2022-12-18T03:35:21.848Z,1029.35
2022-12-18T03:35:52.424Z,1029.33
2022-12-18T03:36:22.985Z,1029.33
2022-12-18T03:36:53.568Z,1029.32
2022-12-18T03:37:24.152Z,1029.33
2022-12-18T03:37:54.706Z,1029.34
2022-12-18T03:38:25.279Z,1029.34
2022-12-18T03:38:55.845Z,1029.35
2022-12-18T03:39:26.395Z,1029.36
2022-12-18T03:39:56.977Z,1029.35
2022-12-18T03:40:27.561Z,1029.35
2022-12-18T03:40:58.138Z,1029.34
2022-12-18T03:41:28.726Z,1029.33
2022-12-18T03:41:59.275Z,1029.32
2022-12-18T03:42:29.851Z,1029.32
2022-12-18T03:43:00.438Z,1029.32
2022-12-18T03:43:30.990Z,1029.32
2022-12-18T03:44:01.560Z,1029.32
2022-12-18T03:44:32.136Z,1029.32
2022-12-18T03:45:02.818Z,1029.34
2022-12-18T03:45:33.340Z,1029.36
2022-12-18T03:46:03.963Z,1029.38
2022-12-18T03:46:34.658Z,1029.40
2022-12-18T03:47:05.259Z,1029.43
2022-12-18T03:47:35.855Z,1029.47
2022-12-18T03:48:06.442Z,1029.50
2022-12-18T03:48:37.017Z,1029.51
2022-12-18T03:49:07.597Z,1029.54
2022-12-18T03:49:38.179Z,1029.55
2022-12-18T03:50:12.593Z,1029.56
2022-12-18T03:50:39.392Z,1029.58
2022-12-18T03:51:09.983Z,1029.58
2022-12-18T03:51:40.534Z,1029.58
2022-12-18T03:52:11.089Z,1029.59
2022-12-18T03:52:41.705Z,1029.60
2022-12-18T03:53:12.251Z,1029.60
2022-12-18T03:53:43.267Z,1029.60
2022-12-18T03:54:13.600Z,1029.60
2022-12-18T03:54:44.177Z,1029.59
2022-12-18T03:55:14.713Z,1029.58
2022-12-18T03:55:45.278Z,1029.56
2022-12-18T03:56:15.841Z,1029.56
2022-12-18T03:56:46.432Z,1029.52
2022-12-18T03:57:17.022Z,1029.49
2022-12-18T03:57:47.593Z,1029.45
2022-12-18T03:58:18.141Z,1029.39
2022-12-18T03:58:48.679Z,1029.38
2022-12-18T03:59:19.268Z,1029.34
2022-12-18T03:59:49.825Z,1029.30
2022-12-18T04:00:20.526Z,1029.28
2022-12-18T04:00:51.053Z,1029.26
2022-12-18T04:01:21.782Z,1029.26
2022-12-18T04:01:52.584Z,1029.27
2022-12-18T04:02:23.371Z,1029.28
2022-12-18T04:02:53.987Z,1029.30
2022-12-18T04:03:26.684Z,1029.31
2022-12-18T04:03:55.362Z,1029.33
2022-12-18T04:04:25.907Z,1029.34
2022-12-18T04:04:56.476Z,1029.36
2022-12-18T04:05:27.026Z,1029.38
2022-12-18T04:05:57.573Z,1029.40
2022-12-18T04:06:28.149Z,1029.42
2022-12-18T04:06:58.712Z,1029.43
2022-12-18T04:07:29.283Z,1029.45
2022-12-18T04:07:59.862Z,1029.47
2022-12-18T04:08:30.446Z,1029.45
2022-12-18T04:09:01.008Z,1029.46
2022-12-18T04:09:31.608Z,1029.44
2022-12-18T04:10:02.191Z,1029.44
2022-12-18T04:10:32.826Z,1029.43
2022-12-18T04:11:03.397Z,1029.43
2022-12-18T04:11:33.971Z,1029.42
2022-12-18T04:12:04.540Z,1029.42
2022-12-18T04:12:35.124Z,1029.43
2022-12-18T04:13:05.694Z,1029.43
2022-12-18T04:13:36.651Z,1029.44
2022-12-18T04:14:07.421Z,1029.44
2022-12-18T04:14:37.713Z,1029.43
2022-12-18T04:15:08.250Z,1029.43
2022-12-18T04:15:44.812Z,1029.43
2022-12-18T04:16:09.832Z,1029.44
2022-12-18T04:16:40.450Z,1029.44
2022-12-18T04:17:10.997Z,1029.44
2022-12-18T04:17:41.563Z,1029.45
2022-12-18T04:18:12.135Z,1029.43
2022-12-18T04:18:42.726Z,1029.43
2022-12-18T04:19:13.299Z,1029.43
2022-12-18T04:19:43.868Z,1029.42
2022-12-18T04:20:14.439Z,1029.42
2022-12-18T04:20:45.006Z,1029.40
2022-12-18T04:21:15.562Z,1029.40
2022-12-18T04:21:46.150Z,1029.39
2022-12-18T04:22:16.701Z,1029.39
2022-12-18T04:22:47.248Z,1029.39
2022-12-18T04:23:17.800Z,1029.39
2022-12-18T04:23:48.365Z,1029.40
2022-12-18T04:24:18.950Z,1029.42
2022-12-18T04:24:49.546Z,1029.42
2022-12-18T04:25:20.122Z,1029.44
2022-12-18T04:25:50.680Z,1029.44
2022-12-18T04:26:21.226Z,1029.43
2022-12-18T04:26:51.791Z,1029.43
2022-12-18T04:27:22.371Z,1029.43
2022-12-18T04:27:52.951Z,1029.42
2022-12-18T04:28:23.516Z,1029.44
2022-12-18T04:28:54.094Z,1029.44
2022-12-18T04:29:24.662Z,1029.43
2022-12-18T04:29:55.218Z,1029.44
2022-12-18T04:30:25.785Z,1029.44
2022-12-18T04:30:56.420Z,1029.44
2022-12-18T04:31:27.193Z,1029.44
2022-12-18T04:31:57.808Z,1029.44
2022-12-18T04:32:28.395Z,1029.45
2022-12-18T04:32:58.929Z,1029.46
2022-12-18T04:33:29.524Z,1029.46
2022-12-18T04:34:00.088Z,1029.47
2022-12-18T04:34:30.652Z,1029.48
2022-12-18T04:35:01.633Z,1029.48
2022-12-18T04:35:32.206Z,1029.49
2022-12-18T04:36:02.790Z,1029.49
2022-12-18T04:36:33.328Z,1029.53
2022-12-18T04:37:03.901Z,1029.53
2022-12-18T04:37:34.450Z,1029.56
2022-12-18T04:38:05.044Z,1029.57
2022-12-18T04:38:35.627Z,1029.59
2022-12-18T04:39:06.208Z,1029.61
2022-12-18T04:39:36.778Z,1029.61
2022-12-18T04:40:07.329Z,1029.61
2022-12-18T04:40:37.883Z,1029.62
2022-12-18T04:41:08.438Z,1029.60
2022-12-18T04:41:39.029Z,1029.58
2022-12-18T04:42:09.614Z,1029.60
2022-12-18T04:42:40.295Z,1029.59
2022-12-18T04:43:10.932Z,1029.60
2022-12-18T04:43:42.085Z,1029.63
2022-12-18T04:44:12.314Z,1029.61
2022-12-18T04:44:42.852Z,1029.64
2022-12-18T04:45:13.382Z,1029.64
2022-12-18T04:45:43.959Z,1029.65
2022-12-18T04:46:14.620Z,1029.66
2022-12-18T04:46:45.506Z,1029.67
2022-12-18T04:47:16.113Z,1029.69
2022-12-18T04:47:46.664Z,1029.71
2022-12-18T04:48:17.263Z,1029.73
2022-12-18T04:48:47.846Z,1029.77
2022-12-18T04:49:18.409Z,1029.79
2022-12-18T04:49:48.994Z,1029.81
2022-12-18T04:50:19.579Z,1029.83
2022-12-18T04:50:50.163Z,1029.84
2022-12-18T04:51:26.172Z,1029.84
2022-12-18T04:51:51.509Z,1029.84
2022-12-18T04:52:25.133Z,1029.85
2022-12-18T04:52:53.059Z,1029.85
2022-12-18T04:53:23.618Z,1029.87
2022-12-18T04:53:54.191Z,1029.86
2022-12-18T04:54:24.726Z,1029.88
2022-12-18T04:54:55.278Z,1029.86
2022-12-18T04:55:25.859Z,1029.89
2022-12-18T04:55:56.390Z,1029.89
2022-12-18T04:56:26.976Z,1029.89
2022-12-18T04:56:57.538Z,1029.89
2022-12-18T04:57:28.080Z,1029.88
2022-12-18T04:57:58.641Z,1029.85
2022-12-18T04:58:29.217Z,1029.82
2022-12-18T04:58:59.793Z,1029.80
2022-12-18T04:59:30.366Z,1029.78
2022-12-18T05:00:00.952Z,1029.75
2022-12-18T05:00:31.566Z,1029.73
2022-12-18T05:01:02.145Z,1029.72
2022-12-18T05:01:34.963Z,1029.73
2022-12-18T05:02:03.531Z,1029.73
2022-12-18T05:02:34.294Z,1029.75
2022-12-18T05:03:04.926Z,1029.75
2022-12-18T05:03:35.545Z,1029.77
2022-12-18T05:04:06.155Z,1029.78
2022-12-18T05:04:36.770Z,1029.77
2022-12-18T05:05:07.335Z,1029.77
2022-12-18T05:05:37.914Z,1029.78
2022-12-18T05:06:08.486Z,1029.77
2022-12-18T05:06:39.088Z,1029.77
2022-12-18T05:07:09.652Z,1029.78
2022-12-18T05:07:40.223Z,1029.79
2022-12-18T05:08:11.000Z,1029.80
2022-12-18T05:08:41.559Z,1029.79
2022-12-18T05:09:12.137Z,1029.83
2022-12-18T05:09:42.685Z,1029.84
2022-12-18T05:10:13.242Z,1029.83
2022-12-18T05:10:43.813Z,1029.85
2022-12-18T05:11:14.379Z,1029.85
2022-12-18T05:11:44.983Z,1029.85
2022-12-18T05:12:15.855Z,1029.85
2022-12-18T05:12:46.408Z,1029.85
2022-12-18T05:13:16.979Z,1029.84
2022-12-18T05:13:47.565Z,1029.84
2022-12-18T05:14:18.152Z,1029.84
2022-12-18T05:14:48.717Z,1029.84
2022-12-18T05:15:19.279Z,1029.84
2022-12-18T05:15:49.891Z,1029.85
2022-12-18T05:16:20.558Z,1029.86
2022-12-18T05:16:51.192Z,1029.85
2022-12-18T05:17:21.901Z,1029.85
2022-12-18T05:17:52.440Z,1029.86
2022-12-18T05:18:23.008Z,1029.88
2022-12-18T05:18:53.593Z,1029.86
2022-12-18T05:19:24.146Z,1029.84
2022-12-18T05:19:54.706Z,1029.81
2022-12-18T05:20:25.264Z,1029.82
2022-12-18T05:20:55.844Z,1029.82
2022-12-18T05:21:26.444Z,1029.82
2022-12-18T05:21:56.993Z,1029.82
2022-12-18T05:22:27.562Z,1029.84
2022-12-18T05:22:58.339Z,1029.86
2022-12-18T05:23:28.912Z,1029.87
2022-12-18T05:23:59.499Z,1029.86
2022-12-18T05:24:30.069Z,1029.87
2022-12-18T05:25:00.626Z,1029.87
2022-12-18T05:25:31.190Z,1029.89
2022-12-18T05:26:01.837Z,1029.89
2022-12-18T05:26:32.408Z,1029.88
2022-12-18T05:27:02.976Z,1029.89
2022-12-18T05:27:33.528Z,1029.90
2022-12-18T05:28:04.102Z,1029.92
2022-12-18T05:28:34.657Z,1029.93
2022-12-18T05:29:05.247Z,1029.94
2022-12-18T05:29:35.787Z,1029.95
2022-12-18T05:30:06.317Z,1029.97
2022-12-18T05:30:36.891Z,1029.98
2022-12-18T05:31:07.526Z,1030.00
2022-12-18T05:31:39.749Z,1030.00
2022-12-18T05:32:08.945Z,1030.00
2022-12-18T05:32:39.641Z,1030.01
2022-12-18T05:33:10.181Z,1030.00
2022-12-18T05:33:41.096Z,1030.00
2022-12-18T05:34:11.790Z,1029.99
2022-12-18T05:34:42.305Z,1029.98
2022-12-18T05:35:12.896Z,1029.96
2022-12-18T05:35:43.475Z,1029.96
2022-12-18T05:36:14.051Z,1029.97
2022-12-18T05:36:44.621Z,1029.96
2022-12-18T05:37:15.225Z,1029.98
2022-12-18T05:37:45.783Z,1029.98
2022-12-18T05:38:16.383Z,1029.97
2022-12-18T05:38:46.988Z,1029.97
2022-12-18T05:39:17.577Z,1029.98
2022-12-18T05:39:48.148Z,1029.99
2022-12-18T05:40:18.700Z,1029.98
2022-12-18T05:40:49.249Z,1029.97
2022-12-18T05:41:19.859Z,1029.95
2022-12-18T05:41:50.439Z,1029.93
2022-12-18T05:42:21.024Z,1029.92
2022-12-18T05:42:51.577Z,1029.89
2022-12-18T05:43:22.160Z,1029.88
2022-12-18T05:43:52.731Z,1029.87
2022-12-18T05:44:23.306Z,1029.87
2022-12-18T05:44:53.871Z,1029.85
2022-12-18T05:45:24.437Z,1029.85
2022-12-18T05:45:55.014Z,1029.85
2022-12-18T05:46:25.648Z,1029.83
2022-12-18T05:46:56.281Z,1029.82
2022-12-18T05:47:26.856Z,1029.83
2022-12-18T05:47:57.529Z,1029.83
2022-12-18T05:48:28.056Z,1029.83
2022-12-18T05:48:58.640Z,1029.84
2022-12-18T05:49:29.214Z,1029.86
2022-12-18T05:49:59.780Z,1029.86
2022-12-18T05:50:30.350Z,1029.86
2022-12-18T05:51:00.911Z,1029.87
2022-12-18T05:51:31.523Z,1029.86
2022-12-18T05:52:02.093Z,1029.87
2022-12-18T05:52:32.686Z,1029.87
2022-12-18T05:53:03.286Z,1029.86
2022-12-18T05:53:33.838Z,1029.84
2022-12-18T05:54:04.421Z,1029.84
2022-12-18T05:54:35.266Z,1029.85
2022-12-18T05:55:05.831Z,1029.84
2022-12-18T05:55:36.381Z,1029.84
2022-12-18T05:56:06.971Z,1029.85
2022-12-18T05:56:37.537Z,1029.89
2022-12-18T05:57:08.103Z,1029.90
2022-12-18T05:57:38.673Z,1029.89
2022-12-18T05:58:09.253Z,1029.90
2022-12-18T05:58:39.848Z,1029.93
2022-12-18T05:59:10.420Z,1029.96
2022-12-18T05:59:40.988Z,1029.98
2022-12-18T06:00:11.549Z,1030.01
2022-12-18T06:00:42.109Z,1030.03
2022-12-18T06:01:12.644Z,1030.04
2022-12-18T06:01:43.310Z,1030.05
2022-12-18T06:02:14.050Z,1030.06
2022-12-18T06:02:44.798Z,1030.06
2022-12-18T06:03:15.708Z,1030.07
2022-12-18T06:03:46.775Z,1030.07
2022-12-18T06:04:17.254Z,1030.08
2022-12-18T06:04:47.812Z,1030.08
2022-12-18T06:05:18.375Z,1030.07
2022-12-18T06:05:48.979Z,1030.07
2022-12-18T06:06:19.551Z,1030.07
2022-12-18T06:06:50.095Z,1030.07
2022-12-18T06:07:20.679Z,1030.06
2022-12-18T06:07:51.227Z,1030.08
2022-12-18T06:08:22.162Z,1030.08
2022-12-18T06:08:52.739Z,1030.10
2022-12-18T06:09:23.361Z,1030.10
2022-12-18T06:09:53.937Z,1030.11